New Centerville, Idaho
Current Conditions -  °F | °C
As of 9:53 PM on Wednesday 22 Oct 2014 (Local Time) from KBOI Reporting Station
Overcast Overcast  
Wind Chill: 63°   Ceiling: 7000
Heat Index: 63°   Visibility: 10mi
Dew Point: 30°   Wind: 10mph
Humidity: 29%   Direction: 120°ESE
Pressure: 30"   Gusts: 16mph
Location:  43.8008°N, 115.834°W
Report Text: KBOI 230353Z 12009G14KT 10SM BKN070 OVC090 17/M01 A3000 RMK AO2 SLP148 T01721011
Loading
Personal Weather Stations






























Interactive Weather Map New forecast layout! Learn more

10-Day Weather Forecast

Advertisements
Track Severe Weather on mobile